createdAt,value
2022-10-19T00:01:36.838Z,97996.47
2022-10-19T00:04:07.890Z,97992.41
2022-10-19T00:06:36.738Z,97991.69
2022-10-19T00:09:07.808Z,97993.22
2022-10-19T00:11:37.029Z,98004.06
2022-10-19T00:14:04.301Z,97996.00
2022-10-19T00:16:34.170Z,97993.72
2022-10-19T00:19:03.249Z,97990.16
2022-10-19T00:21:30.282Z,97981.50
2022-10-19T00:23:57.119Z,97988.25
2022-10-19T00:26:23.716Z,98001.25
2022-10-19T00:28:52.851Z,97986.91
2022-10-19T00:31:19.476Z,97994.94
2022-10-19T00:33:47.086Z,97984.59
2022-10-19T00:36:34.964Z,98002.56
2022-10-19T00:39:03.484Z,97995.25
2022-10-19T00:41:32.301Z,97994.31
2022-10-19T00:44:12.489Z,97983.44
2022-10-19T00:46:41.787Z,98002.97
2022-10-19T00:49:13.067Z,97989.88
2022-10-19T00:51:43.835Z,97988.56
2022-10-19T00:54:11.168Z,97993.91
2022-10-19T00:56:40.750Z,98002.28
2022-10-19T00:59:08.616Z,97997.53
2022-10-19T01:01:36.014Z,98005.06
2022-10-19T01:04:03.813Z,98006.53
2022-10-19T01:06:31.168Z,98020.22
2022-10-19T01:08:57.740Z,98012.97
2022-10-19T01:11:52.336Z,98013.28
2022-10-19T01:14:34.045Z,98002.47
2022-10-19T01:17:23.237Z,98016.38
2022-10-19T01:20:17.915Z,98044.66
2022-10-19T01:23:30.622Z,98040.06
2022-10-19T01:26:18.589Z,98019.22
2022-10-19T01:29:04.294Z,98005.50
2022-10-19T01:31:36.538Z,97986.50
2022-10-19T01:34:13.574Z,97993.22
2022-10-19T01:37:05.080Z,98008.19
2022-10-19T01:39:53.661Z,98012.03
2022-10-19T01:42:32.117Z,98005.22
2022-10-19T01:45:13.909Z,98008.09
2022-10-19T01:47:51.923Z,98016.84
2022-10-19T01:50:27.317Z,98022.69
2022-10-19T01:52:56.003Z,98013.06
2022-10-19T01:55:26.051Z,98011.53
2022-10-19T01:57:58.355Z,98005.97
2022-10-19T02:00:26.818Z,98002.22
2022-10-19T02:02:54.730Z,97993.63
2022-10-19T02:05:24.361Z,98000.78
2022-10-19T02:07:56.060Z,97994.50
2022-10-19T02:10:23.702Z,97987.84
2022-10-19T02:12:51.929Z,97989.03
2022-10-19T02:15:22.490Z,97996.31
2022-10-19T02:17:53.136Z,97989.50
2022-10-19T02:20:20.316Z,97988.81
2022-10-19T02:22:46.925Z,97987.81
2022-10-19T02:25:13.787Z,97986.19
2022-10-19T02:27:44.541Z,97997.81
2022-10-19T02:30:15.485Z,97995.13
2022-10-19T02:32:43.345Z,98005.81
2022-10-19T02:35:11.962Z,97990.47
2022-10-19T02:37:39.130Z,97997.22
2022-10-19T02:40:06.358Z,98017.97
2022-10-19T02:42:38.671Z,98003.16
2022-10-19T02:45:05.171Z,98006.19
2022-10-19T02:47:36.502Z,98006.56
2022-10-19T02:50:08.012Z,98001.47
2022-10-19T02:52:37.605Z,97994.97
2022-10-19T02:55:06.452Z,98002.47
2022-10-19T02:57:33.346Z,98004.81
2022-10-19T03:00:00.218Z,98009.94
2022-10-19T03:02:27.121Z,97988.50
2022-10-19T03:04:53.684Z,97978.75
2022-10-19T03:07:21.579Z,97983.03
2022-10-19T03:09:48.917Z,97987.09
2022-10-19T03:12:15.899Z,97994.38
2022-10-19T03:14:42.470Z,97986.13
2022-10-19T03:17:09.210Z,98021.06
2022-10-19T03:19:36.486Z,98018.41
2022-10-19T03:22:03.929Z,98017.66
2022-10-19T03:24:31.201Z,98017.75
2022-10-19T03:26:57.773Z,98018.06
2022-10-19T03:29:24.366Z,98025.44
2022-10-19T03:31:51.149Z,98031.97
2022-10-19T03:34:17.738Z,98018.69
2022-10-19T03:36:44.366Z,98021.00
2022-10-19T03:39:13.770Z,98023.63
2022-10-19T03:41:40.674Z,98032.91
2022-10-19T03:44:08.284Z,98036.91
2022-10-19T03:46:35.750Z,98042.38
2022-10-19T03:49:02.966Z,98034.94
2022-10-19T03:51:31.228Z,98037.06
2022-10-19T03:54:02.986Z,98028.06
2022-10-19T03:56:30.928Z,98033.06
2022-10-19T03:58:59.522Z,98033.41
2022-10-19T04:01:29.607Z,98024.22
2022-10-19T04:03:58.584Z,98016.28
2022-10-19T04:06:27.919Z,98031.72
2022-10-19T04:08:54.962Z,98032.78
2022-10-19T04:11:24.229Z,98025.34
2022-10-19T04:13:52.361Z,98025.28
2022-10-19T04:16:20.241Z,98024.00
2022-10-19T04:18:47.178Z,98027.97
2022-10-19T04:21:24.235Z,98023.03
2022-10-19T04:23:53.251Z,98020.69
2022-10-19T04:26:20.283Z,98019.66
2022-10-19T04:28:47.322Z,98028.53
2022-10-19T04:31:14.043Z,98029.25
2022-10-19T04:33:41.733Z,98026.94
2022-10-19T04:36:12.994Z,98023.28
2022-10-19T04:38:39.731Z,98020.38
2022-10-19T04:41:12.317Z,98016.28
2022-10-19T04:43:39.220Z,98016.09
2022-10-19T04:46:13.110Z,98014.28
2022-10-19T04:48:40.172Z,98021.63
2022-10-19T04:51:07.795Z,98016.34
2022-10-19T04:53:35.191Z,98024.91
2022-10-19T04:56:05.674Z,98018.16
2022-10-19T04:58:32.384Z,98015.09
2022-10-19T05:00:59.131Z,98020.81
2022-10-19T05:03:25.690Z,98025.63
2022-10-19T05:05:52.225Z,98029.75
2022-10-19T05:08:18.760Z,98030.28
2022-10-19T05:10:47.609Z,98026.22
2022-10-19T05:13:14.711Z,98021.56
2022-10-19T05:15:41.401Z,98029.13
2022-10-19T05:18:08.096Z,98027.00
2022-10-19T05:20:34.742Z,98015.13
2022-10-19T05:23:06.171Z,98019.25
2022-10-19T05:25:34.065Z,98015.13
2022-10-19T05:28:00.606Z,98024.75
2022-10-19T05:30:27.136Z,98017.25
2022-10-19T05:32:53.681Z,98025.28
2022-10-19T05:35:22.600Z,98022.97
2022-10-19T05:37:53.647Z,98016.47
2022-10-19T05:40:20.214Z,98016.16
2022-10-19T05:42:46.832Z,98015.34
2022-10-19T05:45:13.390Z,98009.28
2022-10-19T05:47:39.925Z,98022.41
2022-10-19T05:50:06.797Z,98032.66
2022-10-19T05:52:33.469Z,98031.06
2022-10-19T05:54:59.999Z,98024.00
2022-10-19T05:57:26.666Z,98018.63
2022-10-19T05:59:56.667Z,98010.63
2022-10-19T06:02:23.504Z,98024.63
2022-10-19T06:04:50.254Z,98013.78
2022-10-19T06:07:16.872Z,98027.22
2022-10-19T06:09:43.488Z,98030.31
2022-10-19T06:12:10.076Z,98022.00
2022-10-19T06:14:36.697Z,98028.22
2022-10-19T06:17:04.199Z,98023.22
2022-10-19T06:19:30.780Z,98033.91
2022-10-19T06:21:57.304Z,98037.09
2022-10-19T06:24:24.075Z,98038.66
2022-10-19T06:26:50.609Z,98047.97
2022-10-19T06:29:17.159Z,98047.97
2022-10-19T06:31:43.700Z,98043.03
2022-10-19T06:34:10.323Z,98051.44
2022-10-19T06:36:36.978Z,98050.47
2022-10-19T06:39:04.632Z,98042.78
2022-10-19T06:41:31.611Z,98035.00
2022-10-19T06:44:13.207Z,98036.50
2022-10-19T06:46:39.752Z,98048.88
2022-10-19T06:49:06.299Z,98039.63
2022-10-19T06:51:34.236Z,98038.94
2022-10-19T06:54:01.081Z,98027.84
2022-10-19T06:56:27.710Z,98035.75
2022-10-19T06:58:55.304Z,98029.28
2022-10-19T07:01:22.437Z,98025.69
2022-10-19T07:03:51.801Z,98029.16
2022-10-19T07:06:18.924Z,98032.38
2022-10-19T07:08:45.700Z,98044.56
2022-10-19T07:11:16.599Z,98052.47
2022-10-19T07:13:43.475Z,98057.78
2022-10-19T07:16:16.069Z,98073.22
2022-10-19T07:18:46.595Z,98080.38
2022-10-19T07:21:15.235Z,98085.47
2022-10-19T07:23:43.497Z,98102.47
2022-10-19T07:26:21.368Z,98105.88
2022-10-19T07:28:48.240Z,98103.03
2022-10-19T07:31:18.019Z,98093.09
2022-10-19T07:33:45.100Z,98087.38
2022-10-19T07:36:13.854Z,98083.41
2022-10-19T07:38:40.667Z,98091.56
2022-10-19T07:41:10.229Z,98095.38
2022-10-19T07:43:36.909Z,98099.06
2022-10-19T07:46:09.434Z,98102.75
2022-10-19T07:48:36.140Z,98104.13
2022-10-19T07:51:05.670Z,98107.63
2022-10-19T07:53:33.044Z,98113.41
2022-10-19T07:56:07.394Z,98119.75
2022-10-19T07:58:34.710Z,98114.03
2022-10-19T08:01:06.132Z,98111.53
2022-10-19T08:06:21.836Z,98099.91
2022-10-19T08:08:49.141Z,98091.28
2022-10-19T08:11:24.066Z,98096.72
2022-10-19T08:13:51.611Z,98077.56
2022-10-19T08:16:42.216Z,98060.81
2022-10-19T08:19:14.019Z,98064.47
2022-10-19T08:21:42.877Z,98079.13
2022-10-19T08:24:10.897Z,98064.06
2022-10-19T08:26:39.033Z,98036.94
2022-10-19T08:29:08.711Z,98031.09
2022-10-19T08:31:35.390Z,98015.88
2022-10-19T08:34:02.469Z,98013.59
2022-10-19T08:36:31.329Z,98032.16
2022-10-19T08:38:58.911Z,98040.06
2022-10-19T08:41:40.590Z,98034.53
2022-10-19T08:44:10.297Z,98037.06
2022-10-19T08:46:46.298Z,98050.38
2022-10-19T08:49:19.154Z,98062.03
2022-10-19T08:51:51.626Z,98058.13
2022-10-19T08:54:18.958Z,98054.28
2022-10-19T08:57:24.451Z,98066.44
2022-10-19T09:00:07.078Z,98063.81
2022-10-19T09:02:45.669Z,98061.56
2022-10-19T09:05:23.156Z,98078.59
2022-10-19T09:07:53.584Z,98109.53
2022-10-19T09:10:31.602Z,98114.13
2022-10-19T09:13:01.370Z,98109.53
2022-10-19T09:15:33.853Z,98139.50
2022-10-19T09:18:02.233Z,98174.78
2022-10-19T09:20:45.817Z,98188.69
2022-10-19T09:23:26.586Z,98179.94
2022-10-19T09:25:53.354Z,98206.03
2022-10-19T09:28:39.632Z,98204.91
2022-10-19T09:31:14.252Z,98238.31
2022-10-19T09:33:41.878Z,98240.56
2022-10-19T09:36:15.018Z,98238.69
2022-10-19T09:38:50.262Z,98250.34
2022-10-19T09:41:20.439Z,98277.66
2022-10-19T09:43:53.637Z,98256.03
2022-10-19T09:46:39.371Z,98269.78
2022-10-19T09:49:06.402Z,98327.34
2022-10-19T09:51:59.435Z,98316.25
2022-10-19T09:54:37.097Z,98365.41
2022-10-19T09:57:04.640Z,98389.22
2022-10-19T09:59:36.740Z,98385.00
2022-10-19T10:02:15.301Z,98388.97
2022-10-19T10:04:45.056Z,98425.38
2022-10-19T10:07:17.620Z,98428.66
2022-10-19T10:09:44.982Z,98426.03
2022-10-19T10:12:15.249Z,98428.53
2022-10-19T10:14:44.329Z,98442.22
2022-10-19T10:17:20.614Z,98464.13
2022-10-19T10:20:03.983Z,98478.59
2022-10-19T10:22:37.683Z,98456.50
2022-10-19T10:25:13.733Z,98463.63
2022-10-19T10:27:40.534Z,98429.06
2022-10-19T10:30:08.992Z,98443.19
2022-10-19T10:32:48.175Z,98456.97
2022-10-19T10:35:35.364Z,98481.19
2022-10-19T10:38:09.613Z,98472.63
2022-10-19T10:40:38.094Z,98455.63
2022-10-19T10:43:15.612Z,98416.78
2022-10-19T10:45:54.066Z,98411.22
2022-10-19T10:48:32.794Z,98393.78
2022-10-19T10:51:01.825Z,98379.09
2022-10-19T10:53:34.927Z,98377.88
2022-10-19T10:56:01.659Z,98372.75
2022-10-19T10:58:48.031Z,98390.28
2022-10-19T11:01:27.609Z,98375.50
2022-10-19T11:04:03.512Z,98383.53
2022-10-19T11:06:32.879Z,98401.03
2022-10-19T11:09:07.958Z,98398.63
2022-10-19T11:11:47.412Z,98440.66
2022-10-19T11:14:27.026Z,98446.16
2022-10-19T11:16:56.744Z,98448.75
2022-10-19T11:19:35.376Z,98444.72
2022-10-19T11:22:23.611Z,98465.16
2022-10-19T11:24:55.886Z,98449.91
2022-10-19T11:27:43.535Z,98413.38
2022-10-19T11:30:17.744Z,98426.22
2022-10-19T11:32:58.845Z,98462.69
2022-10-19T11:35:41.321Z,98447.16
2022-10-19T11:38:29.903Z,98440.53
2022-10-19T11:41:18.217Z,98448.41
2022-10-19T11:44:05.318Z,98472.16
2022-10-19T11:46:54.302Z,98520.50
2022-10-19T11:49:32.726Z,98503.22
2022-10-19T11:52:22.004Z,98522.34
2022-10-19T11:55:15.631Z,98542.16
2022-10-19T11:57:54.960Z,98509.06
2022-10-19T12:00:38.047Z,98505.66
2022-10-19T12:03:34.030Z,98483.06
2022-10-19T12:06:08.167Z,98465.47
2022-10-19T12:09:10.453Z,98475.22
2022-10-19T12:12:21.563Z,98459.81
2022-10-19T12:14:52.980Z,98454.53
2022-10-19T12:17:29.143Z,98450.22
2022-10-19T12:20:03.230Z,98418.09
2022-10-19T12:22:30.890Z,98417.81
2022-10-19T12:25:00.552Z,98379.66
2022-10-19T12:27:34.540Z,98368.28
2022-10-19T12:30:27.937Z,98355.41
2022-10-19T12:33:21.049Z,98353.53
2022-10-19T12:36:03.910Z,98365.50
2022-10-19T12:38:40.902Z,98352.81
2022-10-19T12:41:36.627Z,98338.97
2022-10-19T12:44:20.927Z,98333.94
2022-10-19T12:46:53.080Z,98360.38
2022-10-19T12:49:30.350Z,98322.34
2022-10-19T12:51:58.964Z,98327.22
2022-10-19T12:54:28.394Z,98337.22
2022-10-19T12:56:57.373Z,98322.66
2022-10-19T12:59:27.482Z,98306.38
2022-10-19T13:01:54.844Z,98318.41
2022-10-19T13:04:25.329Z,98326.72
2022-10-19T13:06:57.910Z,98305.34
2022-10-19T13:09:30.507Z,98303.44
2022-10-19T13:12:19.458Z,98310.28
2022-10-19T13:14:51.485Z,98302.13
2022-10-19T13:17:34.404Z,98313.34
2022-10-19T13:20:13.412Z,98303.31
2022-10-19T13:22:52.967Z,98291.00
2022-10-19T13:25:21.609Z,98273.88
2022-10-19T13:27:49.991Z,98276.00
2022-10-19T13:30:40.854Z,98292.38
2022-10-19T13:33:24.659Z,98275.22
2022-10-19T13:36:00.610Z,98280.50
2022-10-19T13:38:31.581Z,98271.84
2022-10-19T13:41:25.663Z,98279.28
2022-10-19T13:44:01.162Z,98281.56
2022-10-19T13:46:30.894Z,98252.19
2022-10-19T13:49:06.512Z,98235.97
2022-10-19T13:51:57.886Z,98254.97
2022-10-19T13:54:42.760Z,98272.16
2022-10-19T13:57:42.049Z,98231.47
2022-10-19T14:00:19.829Z,98261.56
2022-10-19T14:03:26.631Z,98248.38
2022-10-19T14:06:07.765Z,98243.13
2022-10-19T14:08:43.619Z,98237.16
2022-10-19T14:11:24.610Z,98232.84
2022-10-19T14:14:12.564Z,98225.59
2022-10-19T14:16:56.000Z,98223.31
2022-10-19T14:19:29.627Z,98214.03
2022-10-19T14:22:00.029Z,98223.59
2022-10-19T14:24:35.168Z,98213.31
2022-10-19T14:27:06.773Z,98219.59
2022-10-19T14:29:53.744Z,98205.47
2022-10-19T14:32:25.355Z,98197.47
2022-10-19T14:34:52.729Z,98201.28
2022-10-19T14:37:22.217Z,98191.47
2022-10-19T14:40:03.447Z,98191.75
2022-10-19T14:42:44.869Z,98178.56
2022-10-19T14:45:21.724Z,98173.78
2022-10-19T14:48:03.344Z,98168.38
2022-10-19T14:50:56.301Z,98156.22
2022-10-19T14:53:54.731Z,98157.00
2022-10-19T14:56:48.935Z,98141.78
2022-10-19T14:59:34.214Z,98144.84
2022-10-19T15:02:12.027Z,98118.13
2022-10-19T15:04:39.123Z,98109.03
2022-10-19T15:07:17.914Z,98090.75
2022-10-19T15:09:52.096Z,98070.47
2022-10-19T15:12:23.628Z,98078.13
2022-10-19T15:14:50.475Z,98066.91
2022-10-19T15:17:31.619Z,98068.00
2022-10-19T15:20:01.372Z,98070.28
2022-10-19T15:22:31.281Z,98066.91
2022-10-19T15:25:08.705Z,98070.00
2022-10-19T15:27:46.138Z,98077.69
2022-10-19T15:30:18.723Z,98068.78
2022-10-19T15:32:48.040Z,98069.69
2022-10-19T15:35:32.062Z,98061.53
2022-10-19T15:38:15.193Z,98067.53
2022-10-19T15:40:43.666Z,98064.44
2022-10-19T15:43:35.060Z,98065.88
2022-10-19T15:46:03.303Z,98054.94
2022-10-19T15:48:51.133Z,98065.53
2022-10-19T15:51:23.274Z,98068.47
2022-10-19T15:53:54.725Z,98075.97
2022-10-19T15:56:23.317Z,98076.13
2022-10-19T15:58:51.417Z,98066.72
2022-10-19T16:01:20.657Z,98066.13
2022-10-19T16:03:47.275Z,98077.50
2022-10-19T16:06:14.017Z,98075.97
2022-10-19T16:08:40.635Z,98074.09
2022-10-19T16:11:13.274Z,98073.94
2022-10-19T16:13:40.169Z,98067.50
2022-10-19T16:16:12.097Z,98064.41
2022-10-19T16:18:38.963Z,98048.28
2022-10-19T16:21:05.879Z,98041.34
2022-10-19T16:23:37.795Z,98028.59
2022-10-19T16:26:07.876Z,98033.31
2022-10-19T16:28:34.527Z,98019.31
2022-10-19T16:31:01.159Z,98004.25
2022-10-19T16:33:27.788Z,97995.03
2022-10-19T16:35:54.327Z,97971.41
2022-10-19T16:38:20.864Z,97971.66
2022-10-19T16:40:47.464Z,97956.59
2022-10-19T16:43:14.017Z,97952.44
2022-10-19T16:45:44.021Z,97947.34
2022-10-19T16:48:13.648Z,97931.84
2022-10-19T16:50:40.249Z,97917.25
2022-10-19T16:53:11.113Z,97900.41
2022-10-19T16:55:39.856Z,97899.78
2022-10-19T16:58:07.040Z,97894.53
2022-10-19T17:00:35.374Z,97885.16
2022-10-19T17:03:01.963Z,97879.47
2022-10-19T17:05:28.485Z,97875.97
2022-10-19T17:07:55.088Z,97862.00
2022-10-19T17:10:21.681Z,97864.09
2022-10-19T17:12:48.355Z,97863.16
2022-10-19T17:15:41.354Z,97855.50
2022-10-19T17:18:01.487Z,97867.38
2022-10-19T17:20:28.092Z,97864.78
2022-10-19T17:22:54.750Z,97879.00
2022-10-19T17:25:21.274Z,97884.53
2022-10-19T17:27:51.606Z,97889.63
2022-10-19T17:30:18.791Z,97882.84
2022-10-19T17:32:45.417Z,97893.03
2022-10-19T17:35:11.992Z,97904.06
2022-10-19T17:37:38.759Z,97914.03
2022-10-19T17:40:06.081Z,97911.25
2022-10-19T17:42:36.478Z,97924.75
2022-10-19T17:45:03.523Z,97944.09
2022-10-19T17:47:30.633Z,97954.06
2022-10-19T17:49:57.187Z,97944.66
2022-10-19T17:52:23.741Z,97928.22
2022-10-19T17:55:11.178Z,97911.94
2022-10-19T17:57:37.426Z,97917.16
2022-10-19T18:00:05.794Z,97930.66
2022-10-19T18:02:39.888Z,97940.31
2022-10-19T18:05:06.845Z,97942.75
2022-10-19T18:07:33.644Z,97929.06
2022-10-19T18:10:00.456Z,97922.44
2022-10-19T18:12:27.107Z,97914.81
2022-10-19T18:14:53.754Z,97909.25
2022-10-19T18:17:24.044Z,97904.50
2022-10-19T18:19:53.496Z,97896.34
2022-10-19T18:22:21.866Z,97907.06
2022-10-19T18:24:49.557Z,97893.41
2022-10-19T18:27:16.182Z,97874.22
2022-10-19T18:29:42.822Z,97860.84
2022-10-19T18:32:09.385Z,97861.13
2022-10-19T18:34:36.040Z,97855.78
2022-10-19T18:37:02.750Z,97831.69
2022-10-19T18:39:29.318Z,97831.69
2022-10-19T18:41:56.002Z,97814.53
2022-10-19T18:44:26.316Z,97806.56
2022-10-19T18:46:54.985Z,97798.09
2022-10-19T18:49:21.645Z,97786.75
2022-10-19T18:51:54.066Z,97767.44
2022-10-19T18:54:22.363Z,97759.91
2022-10-19T18:56:48.971Z,97752.75
2022-10-19T18:59:15.724Z,97743.31
2022-10-19T19:01:42.397Z,97731.22
2022-10-19T19:04:09.667Z,97720.94
2022-10-19T19:06:37.691Z,97705.94
2022-10-19T19:09:09.308Z,97696.03
2022-10-19T19:11:38.440Z,97679.13
2022-10-19T19:14:16.815Z,97667.84
2022-10-19T19:16:44.992Z,97658.44
2022-10-19T19:19:14.089Z,97651.88
2022-10-19T19:21:44.152Z,97643.28
2022-10-19T19:24:14.537Z,97626.94
2022-10-19T19:26:50.180Z,97630.25
2022-10-19T19:29:18.058Z,97625.81
2022-10-19T19:31:44.806Z,97628.66
2022-10-19T19:34:12.058Z,97614.44
2022-10-19T19:39:28.137Z,97597.38
2022-10-19T19:41:54.773Z,97585.00
2022-10-19T19:44:21.526Z,97586.91
2022-10-19T19:46:48.195Z,97572.34
2022-10-19T19:49:14.868Z,97570.16
2022-10-19T19:51:41.639Z,97565.56
2022-10-19T19:54:08.478Z,97562.72
2022-10-19T19:56:37.195Z,97556.16
2022-10-19T19:59:03.861Z,97542.00
2022-10-19T20:01:31.244Z,97537.47
2022-10-19T20:03:59.268Z,97530.41
2022-10-19T20:06:26.220Z,97524.28
2022-10-19T20:08:54.499Z,97516.22
2022-10-19T20:11:22.039Z,97510.66
2022-10-19T20:13:48.929Z,97505.16
2022-10-19T20:16:25.155Z,97495.22
2022-10-19T20:19:11.298Z,97498.28
2022-10-19T20:21:38.251Z,97493.56
2022-10-19T20:24:05.143Z,97485.59
2022-10-19T20:26:31.906Z,97481.63
2022-10-19T20:28:58.655Z,97475.53
2022-10-19T20:31:25.573Z,97476.75
2022-10-19T20:33:52.318Z,97476.41
2022-10-19T20:36:24.520Z,97477.94
2022-10-19T20:38:53.799Z,97480.50
2022-10-19T20:41:22.770Z,97482.44
2022-10-19T20:43:49.950Z,97463.84
2022-10-19T20:46:22.284Z,97470.22
2022-10-19T20:48:50.023Z,97456.66
2022-10-19T20:51:30.919Z,97451.72
2022-10-19T20:54:01.275Z,97459.06
2022-10-19T20:56:30.722Z,97450.06
2022-10-19T20:58:59.081Z,97450.69
2022-10-19T21:01:26.588Z,97448.06
2022-10-19T21:03:59.054Z,97450.63
2022-10-19T21:06:27.127Z,97455.66
2022-10-19T21:08:54.245Z,97440.84
2022-10-19T21:11:26.649Z,97448.63
2022-10-19T21:13:58.453Z,97460.22
2022-10-19T21:16:30.283Z,97436.00
2022-10-19T21:18:57.217Z,97433.28
2022-10-19T21:21:29.302Z,97427.66
2022-10-19T21:23:58.967Z,97421.66
2022-10-19T21:26:26.894Z,97437.56
2022-10-19T21:28:53.740Z,97434.31
2022-10-19T21:31:22.058Z,97437.38
2022-10-19T21:33:49.500Z,97437.09
2022-10-19T21:36:16.162Z,97434.31
2022-10-19T21:38:43.077Z,97428.97
2022-10-19T21:41:20.932Z,97446.56
2022-10-19T21:43:50.667Z,97441.44
2022-10-19T21:46:19.643Z,97459.03
2022-10-19T21:48:46.905Z,97441.59
2022-10-19T21:51:32.109Z,97446.00
2022-10-19T21:53:59.058Z,97443.06
2022-10-19T21:56:25.761Z,97441.88
2022-10-19T21:58:53.898Z,97432.97
2022-10-19T22:01:22.884Z,97436.63
2022-10-19T22:03:49.547Z,97431.44
2022-10-19T22:06:16.262Z,97431.53
2022-10-19T22:08:46.766Z,97430.66
2022-10-19T22:11:14.373Z,97427.13
2022-10-19T22:13:42.011Z,97447.94
2022-10-19T22:16:12.564Z,97449.22
2022-10-19T22:18:39.512Z,97432.53
2022-10-19T22:21:09.606Z,97427.69
2022-10-19T22:23:36.437Z,97461.03
2022-10-19T22:26:11.942Z,97453.25
2022-10-19T22:28:38.531Z,97451.88
2022-10-19T22:31:05.151Z,97438.63
2022-10-19T22:33:31.672Z,97445.78
2022-10-19T22:36:00.754Z,97428.78
2022-10-19T22:38:28.679Z,97425.59
2022-10-19T22:40:55.229Z,97428.91
2022-10-19T22:43:21.746Z,97427.94
2022-10-19T22:45:49.672Z,97432.69
2022-10-19T22:48:17.737Z,97418.94
2022-10-19T22:50:45.235Z,97412.97
2022-10-19T22:53:12.626Z,97409.03
2022-10-19T22:55:39.816Z,97404.25
2022-10-19T22:58:08.455Z,97399.06
2022-10-19T23:00:35.435Z,97406.06
2022-10-19T23:03:01.999Z,97428.34
2022-10-19T23:05:28.641Z,97396.63
2022-10-19T23:07:55.185Z,97391.94
2022-10-19T23:10:21.827Z,97393.22
2022-10-19T23:12:50.231Z,97385.16
2022-10-19T23:15:17.211Z,97382.09
2022-10-19T23:17:43.913Z,97392.28
2022-10-19T23:20:11.497Z,97389.97
2022-10-19T23:22:38.384Z,97392.09
2022-10-19T23:25:05.440Z,97377.59
2022-10-19T23:27:32.128Z,97373.13
2022-10-19T23:29:59.326Z,97376.06
2022-10-19T23:32:25.972Z,97383.06
2022-10-19T23:34:52.562Z,97373.75
2022-10-19T23:37:19.205Z,97353.91
2022-10-19T23:39:45.765Z,97363.81
2022-10-19T23:42:12.298Z,97363.34
2022-10-19T23:44:38.866Z,97354.03
2022-10-19T23:47:05.431Z,97370.22
2022-10-19T23:49:32.024Z,97378.00
2022-10-19T23:51:58.557Z,97365.66
2022-10-19T23:54:25.134Z,97373.03
2022-10-19T23:56:51.875Z,97375.63
2022-10-19T23:59:18.473Z,97371.25
